Time;durP1;ratioP1;P1;durP2;ratioP2;P2;SDS_P1;SDS_P2;PMS_P1;PMS_P2;Temp;Humidity;BMP_temperature;BMP_pressure;BME280_temperature;BME280_humidity;BME280_pressure;Samples;Min_cycle;Max_cycle;Signal;HPM_P1;HPM_P2
2022/11/10 00:00:17;;;;;;;;;;;;;;;12.60;54.38;100714.00;4980573;27;128366;-64
2022/11/10 00:02:43;;;;;;;;;;;;;;;12.59;54.38;100707.00;4979393;27;109750;-64
2022/11/10 00:05:09;;;;;;;;;;;;;;;12.59;54.64;100717.00;4960921;28;128611;-64
2022/11/10 00:07:36;;;;;;;;;;;;;;;12.59;54.42;100717.00;4979460;28;108062;-64
2022/11/10 00:10:01;;;;;;;;;;;;;;;12.58;54.24;100713.50;4979914;27;127471;-65
2022/11/10 00:12:27;;;;;;;;;;;;;;;12.59;54.34;100719.72;4980685;27;106494;-64
2022/11/10 00:17:38;;;;;;;;;;;;;;;12.57;54.54;100724.56;4977713;28;98285;-65
2022/11/10 00:20:04;;;;;;;;;;;;;;;12.56;54.48;100725.66;4980161;28;127714;-65
2022/11/10 00:22:31;;;;;;;;;;;;;;;12.57;54.57;100736.19;4980384;28;97988;-65
2022/11/10 00:24:57;;;;;;;;;;;;;;;12.56;54.39;100734.56;4979651;27;119747;-66
2022/11/10 00:27:23;;;;;;;;;;;;;;;12.56;54.48;100742.69;4979553;27;126492;-66
2022/11/10 00:29:49;;;;;;;;;;;;;;;12.56;54.42;100736.47;4978581;28;128498;-64
2022/11/10 00:32:15;;;;;;;;;;;;;;;12.55;54.59;100742.97;4979578;28;118685;-65
2022/11/10 00:34:41;;;;;;;;;;;;;;;12.55;54.34;100751.88;4980049;28;127455;-65
2022/11/10 00:37:07;;;;;;;;;;;;;;;12.53;54.39;100748.63;4978870;28;127959;-66
2022/11/10 00:39:33;;;;;;;;;;;;;;;12.53;54.43;100749.44;4979597;28;127608;-65
2022/11/10 00:41:59;;;;;;;;;;;;;;;12.54;54.63;100752.97;4980188;27;117437;-66
2022/11/10 00:44:25;;;;;;;;;;;;;;;12.53;54.42;100754.03;4980302;28;98522;-65
2022/11/10 00:46:50;;;;;;;;;;;;;;;12.53;54.52;100751.34;4979749;27;99025;-65
2022/11/10 00:49:16;;;;;;;;;;;;;;;12.52;54.42;100757.84;4979230;28;127174;-66
2022/11/10 00:51:42;;;;;;;;;;;;;;;12.51;54.43;100757.03;4980504;28;98085;-65
2022/11/10 00:54:08;;;;;;;;;;;;;;;12.51;54.62;100767.03;4958401;28;127855;-65
2022/11/10 00:56:34;;;;;;;;;;;;;;;12.50;54.40;100766.22;4958662;28;127763;-65
2022/11/10 00:59:00;;;;;;;;;;;;;;;12.50;54.37;100758.13;4963586;28;126485;-65
2022/11/10 01:01:26;;;;;;;;;;;;;;;12.50;54.38;100773.53;4979811;28;116652;-65
2022/11/10 01:03:52;;;;;;;;;;;;;;;12.48;54.50;100771.09;4980340;27;128888;-65
2022/11/10 01:06:18;;;;;;;;;;;;;;;12.48;54.39;100773.78;4967008;28;128717;-65
2022/11/10 01:08:44;;;;;;;;;;;;;;;12.48;54.63;100773.78;4975319;27;98008;-65
2022/11/10 01:11:20;;;;;;;;;;;;;;;12.47;54.39;100780.28;4982987;28;116393;-64
2022/11/10 01:13:46;;;;;;;;;;;;;;;12.46;54.60;100792.19;4981993;28;103540;-65
2022/11/10 01:16:18;;;;;;;;;;;;;;;12.46;54.34;100791.38;4981874;28;128139;-64
2022/11/10 01:18:47;;;;;;;;;;;;;;;12.45;54.99;100797.84;4983011;28;98459;-65
2022/11/10 01:21:13;;;;;;;;;;;;;;;12.44;54.51;100797.03;4963360;28;98289;-64
2022/11/10 01:23:39;;;;;;;;;;;;;;;12.43;54.39;100791.91;4961822;28;128486;-64
2022/11/10 01:26:05;;;;;;;;;;;;;;;12.42;54.47;100801.94;4965180;28;127777;-65
2022/11/10 01:28:31;;;;;;;;;;;;;;;12.42;54.59;100812.75;4982086;27;98263;-65
2022/11/10 01:30:58;;;;;;;;;;;;;;;12.40;54.54;100804.06;4961166;28;113570;-64
2022/11/10 01:33:24;;;;;;;;;;;;;;;12.40;54.64;100804.06;4963716;28;99398;-65
2022/11/10 01:35:50;;;;;;;;;;;;;;;12.39;54.53;100799.75;4982914;28;126924;-65
2022/11/10 01:38:16;;;;;;;;;;;;;;;12.39;54.55;100807.88;4981704;28;127035;-65
2022/11/10 01:40:43;;;;;;;;;;;;;;;12.39;54.48;100809.78;4980043;28;117311;-65
2022/11/10 01:43:09;;;;;;;;;;;;;;;12.38;54.73;100810.81;4982013;28;98101;-65
2022/11/10 01:45:55;;;;;;;;;;;;;;;12.37;54.50;100807.31;4951836;27;106279;-66
2022/11/10 01:48:28;;;;;;;;;;;;;;;12.36;54.61;100808.41;4981993;28;101261;-65
2022/11/10 01:50:54;;;;;;;;;;;;;;;12.37;54.65;100820.03;4965416;28;98438;-66
2022/11/10 01:53:23;;;;;;;;;;;;;;;12.35;54.54;100814.09;4961503;28;118922;-66
2022/11/10 01:55:49;;;;;;;;;;;;;;;12.39;54.78;100813.28;4964524;28;122967;-66
2022/11/10 01:58:16;;;;;;;;;;;;;;;12.46;54.62;100824.63;4982780;28;98120;-65
2022/11/10 02:00:42;;;;;;;;;;;;;;;12.52;54.72;100817.31;4965770;28;99553;-65
2022/11/10 02:03:32;;;;;;;;;;;;;;;12.58;54.48;100821.66;4961350;28;127854;-65
2022/11/10 02:05:58;;;;;;;;;;;;;;;12.63;54.45;100821.66;4982278;28;98059;-65
2022/11/10 02:08:24;;;;;;;;;;;;;;;12.67;54.68;100816.50;4951411;28;127864;-65
2022/11/10 02:10:50;;;;;;;;;;;;;;;12.69;54.66;100823.28;4982217;28;97710;-65
2022/11/10 02:13:16;;;;;;;;;;;;;;;12.71;54.57;100820.28;4981064;27;127693;-65
2022/11/10 02:15:42;;;;;;;;;;;;;;;12.73;54.56;100820.81;4980675;27;126686;-65
2022/11/10 02:18:08;;;;;;;;;;;;;;;12.75;54.92;100829.47;4961083;28;127779;-65
2022/11/10 02:20:34;;;;;;;;;;;;;;;12.76;54.65;100831.09;4982403;27;113189;-65
2022/11/10 02:23:28;;;;;;;;;;;;;;;12.76;54.76;100837.31;4982793;27;127265;-66
2022/11/10 02:25:54;;;;;;;;;;;;;;;12.76;54.86;100837.31;4982343;28;98689;-66
2022/11/10 02:28:20;;;;;;;;;;;;;;;12.75;54.87;100846.50;4982918;27;111056;-66
2022/11/10 02:30:45;;;;;;;;;;;;;;;12.77;54.67;100846.22;4964133;28;98032;-65
2022/11/10 02:33:11;;;;;;;;;;;;;;;12.76;54.81;100850.81;4980321;27;126583;-66
2022/11/10 02:35:37;;;;;;;;;;;;;;;12.75;54.49;100851.91;4949556;28;128135;-65
2022/11/10 02:38:03;;;;;;;;;;;;;;;12.76;54.64;100863.53;4963714;28;127590;-65
2022/11/10 02:40:29;;;;;;;;;;;;;;;12.75;54.55;100861.94;4960537;28;115473;-66
2022/11/10 02:42:55;;;;;;;;;;;;;;;12.74;54.74;100865.72;4943823;28;128548;-65
2022/11/10 02:45:21;;;;;;;;;;;;;;;12.72;54.82;100879.50;4981863;28;127202;-66
2022/11/10 02:47:47;;;;;;;;;;;;;;;12.72;54.83;100876.00;4981466;28;127684;-66
2022/11/10 02:50:13;;;;;;;;;;;;;;;12.70;54.62;100876.28;4964539;28;98024;-66
2022/11/10 02:52:39;;;;;;;;;;;;;;;12.71;54.82;100882.50;4977768;28;127240;-65
2022/11/10 02:55:05;;;;;;;;;;;;;;;12.69;54.85;100881.94;4960974;28;123878;-65
2022/11/10 02:57:31;;;;;;;;;;;;;;;12.68;54.85;100885.72;4981010;28;121523;-65
2022/11/10 02:59:57;;;;;;;;;;;;;;;12.64;54.83;100885.47;4982218;28;105281;-66
2022/11/10 03:02:23;;;;;;;;;;;;;;;12.63;54.75;100891.97;4977526;27;126656;-66
2022/11/10 03:04:49;;;;;;;;;;;;;;;12.62;54.84;100887.63;4976824;27;108517;-66
2022/11/10 03:07:14;;;;;;;;;;;;;;;12.62;54.85;100905.75;4978210;27;126918;-65
2022/11/10 03:09:40;;;;;;;;;;;;;;;12.60;54.85;100905.19;4982357;28;116887;-66
2022/11/10 03:12:06;;;;;;;;;;;;;;;12.59;54.76;100906.28;4981520;28;126554;-66
2022/11/10 03:14:32;;;;;;;;;;;;;;;12.57;54.80;100916.56;4981654;28;127378;-66
2022/11/10 03:16:58;;;;;;;;;;;;;;;12.56;54.77;100910.34;4980002;28;127625;-66
2022/11/10 03:19:24;;;;;;;;;;;;;;;12.55;54.43;100918.72;4982143;28;115904;-66
2022/11/10 03:21:50;;;;;;;;;;;;;;;12.53;54.83;100932.50;4961471;28;127999;-65
2022/11/10 03:24:16;;;;;;;;;;;;;;;12.51;54.75;100935.50;4973086;28;99239;-65
2022/11/10 03:26:42;;;;;;;;;;;;;;;12.51;54.46;100931.97;4969582;28;125974;-65
2022/11/10 03:29:08;;;;;;;;;;;;;;;12.48;54.77;100932.50;4977837;28;117375;-66
2022/11/10 03:31:33;;;;;;;;;;;;;;;12.47;54.90;100939.81;4939506;28;128170;-66
2022/11/10 03:33:59;;;;;;;;;;;;;;;12.47;54.66;100944.41;4963083;28;128414;-66
2022/11/10 03:36:25;;;;;;;;;;;;;;;12.44;55.06;100948.44;4981400;28;126872;-65
2022/11/10 03:38:51;;;;;;;;;;;;;;;12.44;54.83;100950.34;4962592;28;116019;-66
2022/11/10 03:41:17;;;;;;;;;;;;;;;12.43;54.83;100951.44;4981536;28;99140;-66
2022/11/10 03:43:43;;;;;;;;;;;;;;;12.41;54.65;100951.69;4983392;27;125920;-66
2022/11/10 03:46:09;;;;;;;;;;;;;;;12.41;54.77;100959.78;4979957;28;127988;-65
2022/11/10 03:48:35;;;;;;;;;;;;;;;12.42;54.63;100952.53;4976695;27;98739;-66
2022/11/10 03:51:01;;;;;;;;;;;;;;;12.41;54.67;100965.19;4960627;28;127343;-66
2022/11/10 03:53:27;;;;;;;;;;;;;;;12.40;54.60;100970.88;4961526;28;127719;-66
2022/11/10 03:55:53;;;;;;;;;;;;;;;12.40;54.60;100969.00;4960657;28;128413;-66
2022/11/10 03:58:19;;;;;;;;;;;;;;;12.39;54.61;100975.50;4961641;28;116419;-65
2022/11/10 04:00:45;;;;;;;;;;;;;;;12.40;54.86;100976.28;4939924;28;126677;-65
2022/11/10 04:03:11;;;;;;;;;;;;;;;12.39;54.67;100974.69;4936852;28;127683;-65
2022/11/10 04:11:06;;;;;;;;;;;;;;;12.39;54.67;100977.38;4956315;28;98116;-66
2022/11/10 04:16:16;;;;;;;;;;;;;;;12.38;54.58;100989.25;4958049;28;97988;-66
2022/11/10 04:18:42;;;;;;;;;;;;;;;12.39;54.56;100993.59;4947400;28;99245;-65
2022/11/10 04:21:08;;;;;;;;;;;;;;;12.39;54.80;100993.59;4959785;28;126534;-65
2022/11/10 04:23:34;;;;;;;;;;;;;;;12.38;54.61;100991.94;4945661;28;125898;-66
2022/11/10 04:29:00;;;;;;;;;;;;;;;12.38;54.63;101009.00;4961208;28;97736;-67
2022/11/10 04:31:27;;;;;;;;;;;;;;;12.39;54.78;101013.34;4957069;28;124698;-66
2022/11/10 04:33:53;;;;;;;;;;;;;;;12.38;54.78;101019.81;4942431;28;119055;-65
2022/11/10 04:36:20;;;;;;;;;;;;;;;12.40;54.81;101022.25;4939461;28;101833;-65
2022/11/10 04:38:46;;;;;;;;;;;;;;;12.39;54.77;101020.63;4938332;28;112328;-65
2022/11/10 04:41:12;;;;;;;;;;;;;;;12.39;54.74;101018.75;4942926;28;105021;-65
2022/11/10 04:43:38;;;;;;;;;;;;;;;12.40;54.75;101025.75;4963408;28;127249;-65
2022/11/10 04:46:05;;;;;;;;;;;;;;;12.41;54.86;101026.56;4964274;28;98569;-67
2022/11/10 04:48:31;;;;;;;;;;;;;;;12.40;54.67;101044.69;4965769;28;114765;-65
2022/11/10 04:51:01;;;;;;;;;;;;;;;12.41;54.42;101042.78;4969014;28;125626;-64
2022/11/10 04:53:27;;;;;;;;;;;;;;;12.41;54.63;101042.78;4961802;28;124158;-66
2022/11/10 04:55:53;;;;;;;;;;;;;;;12.41;54.58;101040.09;4982366;28;97907;-66
2022/11/10 04:58:19;;;;;;;;;;;;;;;12.40;54.55;101042.00;4960500;28;99271;-65
2022/11/10 05:00:45;;;;;;;;;;;;;;;12.41;54.63;101042.78;4981201;28;98631;-66
2022/11/10 05:03:11;;;;;;;;;;;;;;;12.40;54.78;101047.41;4982150;27;98978;-66
2022/11/10 05:05:37;;;;;;;;;;;;;;;12.41;54.54;101051.72;4982326;28;98412;-65
2022/11/10 05:08:03;;;;;;;;;;;;;;;12.42;54.87;101055.25;4983055;28;98032;-66
2022/11/10 05:10:29;;;;;;;;;;;;;;;12.40;54.77;101052.81;4982580;28;98737;-65
2022/11/10 05:12:55;;;;;;;;;;;;;;;12.40;54.75;101060.91;4981939;27;128153;-65
2022/11/10 05:15:22;;;;;;;;;;;;;;;12.41;54.87;101067.94;4980519;28;108454;-66
2022/11/10 05:17:49;;;;;;;;;;;;;;;12.41;54.54;101072.53;4984481;28;108359;-66
2022/11/10 05:20:15;;;;;;;;;;;;;;;12.40;54.83;101065.50;4983760;28;99389;-65
2022/11/10 05:22:45;;;;;;;;;;;;;;;12.40;54.78;101070.91;4980470;27;125458;-65
2022/11/10 05:25:11;;;;;;;;;;;;;;;12.42;54.77;101074.19;4982333;28;98190;-66
2022/11/10 05:27:37;;;;;;;;;;;;;;;12.41;54.83;101073.34;4983877;28;99292;-66
2022/11/10 05:30:03;;;;;;;;;;;;;;;12.42;54.64;101076.88;4981953;28;127979;-66
2022/11/10 05:32:29;;;;;;;;;;;;;;;12.42;54.61;101079.59;4982353;27;104327;-66
2022/11/10 05:34:55;;;;;;;;;;;;;;;12.42;54.64;101083.09;4981401;28;127351;-65
2022/11/10 05:37:21;;;;;;;;;;;;;;;12.41;54.80;101084.16;4977859;27;115399;-65
2022/11/10 05:39:47;;;;;;;;;;;;;;;12.42;54.58;101085.81;4979035;28;128388;-65
2022/11/10 05:42:13;;;;;;;;;;;;;;;12.42;54.60;101091.22;4958792;28;99111;-65
2022/11/10 05:44:39;;;;;;;;;;;;;;;12.42;54.51;101093.09;4974457;27;127647;-65
2022/11/10 05:47:05;;;;;;;;;;;;;;;12.42;54.62;101093.91;4090242;28;10000643;-65
2022/11/10 05:49:31;;;;;;;;;;;;;;;12.41;54.62;101099.56;4978154;27;98436;-65
2022/11/10 05:51:57;;;;;;;;;;;;;;;12.42;54.76;101101.22;4978885;27;98035;-65
2022/11/10 05:54:23;;;;;;;;;;;;;;;12.40;54.77;101109.56;4976724;27;98286;-66
2022/11/10 05:56:48;;;;;;;;;;;;;;;12.39;55.03;101118.78;4980217;28;127477;-66
2022/11/10 05:59:14;;;;;;;;;;;;;;;12.40;54.62;101133.91;4980798;28;127590;-66
2022/11/10 06:01:40;;;;;;;;;;;;;;;12.39;54.88;101132.28;4982184;27;116922;-66
2022/11/10 06:04:06;;;;;;;;;;;;;;;12.38;54.59;101141.47;4980702;28;128656;-67
2022/11/10 06:06:32;;;;;;;;;;;;;;;12.39;54.65;101137.69;4983404;28;126208;-66
2022/11/10 06:08:58;;;;;;;;;;;;;;;12.38;54.82;101133.38;4982971;28;126669;-66
2022/11/10 06:11:24;;;;;;;;;;;;;;;12.38;54.94;101146.88;4983982;27;97879;-66
2022/11/10 06:13:50;;;;;;;;;;;;;;;12.37;54.67;101156.06;4982417;28;128070;-66
2022/11/10 06:16:16;;;;;;;;;;;;;;;12.37;54.73;101169.56;4980414;27;128353;-66
2022/11/10 06:18:42;;;;;;;;;;;;;;;12.36;54.50;101178.78;4982751;28;126548;-66
2022/11/10 06:21:08;;;;;;;;;;;;;;;12.36;54.73;101183.38;4982978;28;116957;-66
2022/11/10 06:23:33;;;;;;;;;;;;;;;12.36;54.72;101188.78;4983374;27;126087;-66
2022/11/10 06:25:59;;;;;;;;;;;;;;;12.36;54.84;101202.28;4983215;28;129283;-66
2022/11/10 06:28:25;;;;;;;;;;;;;;;12.34;54.60;101210.66;4982406;28;126648;-65
2022/11/10 06:30:51;;;;;;;;;;;;;;;12.33;54.70;101214.44;4982007;28;117499;-66
2022/11/10 06:33:17;;;;;;;;;;;;;;;12.34;54.55;101217.94;4980304;27;126014;-65
2022/11/10 06:35:44;;;;;;;;;;;;;;;12.36;54.48;101223.91;4981317;28;127290;-66
2022/11/10 06:38:11;;;;;;;;;;;;;;;12.36;54.53;101226.63;4981038;28;126792;-66
2022/11/10 06:40:37;;;;;;;;;;;;;;;12.37;54.57;101233.66;4979604;28;99179;-65
2022/11/10 06:43:03;;;;;;;;;;;;;;;12.39;54.56;101237.72;4963550;28;128168;-66
2022/11/10 06:45:29;;;;;;;;;;;;;;;12.43;54.67;101246.13;4955521;28;98398;-65
2022/11/10 06:47:59;;;;;;;;;;;;;;;12.45;54.44;101244.78;4981463;28;97951;-65
2022/11/10 06:50:25;;;;;;;;;;;;;;;12.47;54.47;101252.66;4979848;28;98106;-65
2022/11/10 06:52:54;;;;;;;;;;;;;;;12.48;54.47;101252.38;4979616;28;128161;-65
2022/11/10 06:55:20;;;;;;;;;;;;;;;12.48;54.42;101255.09;4961007;28;98420;-65
2022/11/10 06:57:46;;;;;;;;;;;;;;;12.49;54.39;101258.59;4935244;28;99922;-65
2022/11/10 07:00:13;;;;;;;;;;;;;;;12.50;54.47;101263.75;4949689;28;117554;-66
2022/11/10 07:02:39;;;;;;;;;;;;;;;12.53;54.50;101275.94;4965437;28;98625;-65
2022/11/10 07:05:05;;;;;;;;;;;;;;;12.53;54.45;101276.75;4980994;28;100289;-66
2022/11/10 07:07:31;;;;;;;;;;;;;;;12.53;54.43;101282.16;4979506;28;117301;-65
2022/11/10 07:09:57;;;;;;;;;;;;;;;12.53;54.41;101282.16;4980005;28;117451;-66
2022/11/10 07:12:23;;;;;;;;;;;;;;;12.56;54.58;101288.13;4978182;27;127357;-65
2022/11/10 07:14:49;;;;;;;;;;;;;;;12.63;54.21;101297.66;4980326;28;128066;-65
2022/11/10 07:17:15;;;;;;;;;;;;;;;12.69;54.54;101304.72;4940948;28;127586;-66
2022/11/10 07:19:41;;;;;;;;;;;;;;;12.74;54.16;101310.16;4980010;28;118152;-66
2022/11/10 07:22:07;;;;;;;;;;;;;;;12.74;54.46;101312.88;4977046;28;99442;-66
2022/11/10 07:24:33;;;;;;;;;;;;;;;12.77;54.43;101323.16;4981376;28;99220;-66
2022/11/10 07:26:59;;;;;;;;;;;;;;;12.87;54.00;101333.22;4978700;28;98547;-66
2022/11/10 07:29:25;;;;;;;;;;;;;;;12.95;54.24;101334.63;4982304;28;97729;-67
2022/11/10 07:31:51;;;;;;;;;;;;;;;12.99;53.99;101341.97;4980149;27;126840;-66
2022/11/10 07:34:17;;;;;;;;;;;;;;;13.06;54.07;101343.63;4978602;28;99137;-65
2022/11/10 07:36:43;;;;;;;;;;;;;;;13.13;54.17;101349.63;4980916;28;127957;-66
2022/11/10 07:39:10;;;;;;;;;;;;;;;13.24;53.96;101348.59;4982194;28;117461;-66
2022/11/10 07:41:36;;;;;;;;;;;;;;;13.37;53.85;101344.63;4977424;27;119327;-66
2022/11/10 07:44:02;;;;;;;;;;;;;;;13.41;53.84;101349.22;4979309;28;124939;-66
2022/11/10 07:46:28;;;;;;;;;;;;;;;13.43;53.66;101351.66;4980101;28;126773;-66
2022/11/10 07:48:54;;;;;;;;;;;;;;;13.48;53.60;101360.66;4973292;28;119381;-66
2022/11/10 07:51:20;;;;;;;;;;;;;;;13.54;53.66;101360.66;4941643;28;127364;-65
2022/11/10 07:53:46;;;;;;;;;;;;;;;13.63;53.71;101362.56;4942281;28;128111;-65
2022/11/10 07:56:11;;;;;;;;;;;;;;;13.71;53.48;101372.06;4961352;28;121878;-66
2022/11/10 07:58:37;;;;;;;;;;;;;;;13.81;53.62;101382.97;4960033;28;117680;-65
2022/11/10 08:01:03;;;;;;;;;;;;;;;13.83;53.52;101374.56;4958653;28;127244;-66
2022/11/10 08:03:29;;;;;;;;;;;;;;;13.80;53.57;101380.53;4959662;28;128724;-66
2022/11/10 08:05:55;;;;;;;;;;;;;;;13.79;53.81;101378.88;4961090;28;98921;-65
2022/11/10 08:08:21;;;;;;;;;;;;;;;13.78;53.67;101388.09;4960786;28;98136;-65
2022/11/10 08:10:47;;;;;;;;;;;;;;;13.79;53.70;101385.09;4958736;28;128772;-66
2022/11/10 08:13:13;;;;;;;;;;;;;;;13.83;53.85;101388.91;4960102;28;100725;-65
2022/11/10 08:15:39;;;;;;;;;;;;;;;13.86;53.71;101393.00;4959252;28;127493;-65
2022/11/10 08:18:16;;;;;;;;;;;;;;;13.91;53.82;101401.97;4959185;28;117717;-65
2022/11/10 08:20:42;;;;;;;;;;;;;;;14.01;53.77;101403.88;4960318;28;98643;-65
2022/11/10 08:23:08;;;;;;;;;;;;;;;14.11;53.72;101406.63;4958809;28;98945;-66
2022/11/10 08:25:34;;;;;;;;;;;;;;;14.19;53.70;101408.00;4941076;28;111569;-65
2022/11/10 08:28:01;;;;;;;;;;;;;;;14.24;53.22;101413.41;4958710;28;117665;-65
2022/11/10 08:30:28;;;;;;;;;;;;;;;14.29;53.65;101410.69;4957598;28;128028;-66
2022/11/10 08:32:55;;;;;;;;;;;;;;;14.38;53.55;101427.25;4959602;28;99163;-65
2022/11/10 08:35:22;;;;;;;;;;;;;;;14.49;53.25;101423.50;4958513;28;98417;-65
2022/11/10 08:37:48;;;;;;;;;;;;;;;14.61;53.38;101431.38;4958814;28;97986;-66
2022/11/10 08:40:15;;;;;;;;;;;;;;;14.73;52.95;101431.91;4956325;28;98167;-65
2022/11/10 08:42:41;;;;;;;;;;;;;;;14.71;53.12;101437.63;4956217;28;98365;-66
2022/11/10 08:45:07;;;;;;;;;;;;;;;14.70;53.17;101444.16;4957776;28;97959;-66
2022/11/10 08:47:33;;;;;;;;;;;;;;;14.85;53.33;101445.22;4957948;28;103343;-66
2022/11/10 08:49:58;;;;;;;;;;;;;;;15.66;52.10;101447.00;4964680;28;127133;-66
2022/11/10 08:52:24;;;;;;;;;;;;;;;16.50;51.10;101445.16;4976939;28;128419;-65
2022/11/10 08:54:50;;;;;;;;;;;;;;;17.20;50.51;101450.28;4977523;28;128441;-66
2022/11/10 08:57:16;;;;;;;;;;;;;;;17.49;50.85;101452.16;4976540;28;118242;-66
2022/11/10 08:59:42;;;;;;;;;;;;;;;17.71;50.90;101455.19;4979341;28;127941;-66
2022/11/10 09:02:09;;;;;;;;;;;;;;;17.91;50.92;101463.13;4980643;27;98230;-66
2022/11/10 09:04:35;;;;;;;;;;;;;;;18.15;50.91;101474.00;4977741;28;126433;-66
2022/11/10 09:07:01;;;;;;;;;;;;;;;18.26;51.07;101477.41;4960353;28;104296;-66
2022/11/10 09:09:27;;;;;;;;;;;;;;;18.21;51.50;101469.28;4979648;28;127689;-66
2022/11/10 09:11:53;;;;;;;;;;;;;;;18.13;51.46;101475.41;4958752;27;129176;-65
2022/11/10 09:14:19;;;;;;;;;;;;;;;18.03;51.86;101484.53;4966145;28;117843;-66
2022/11/10 09:16:45;;;;;;;;;;;;;;;17.98;51.96;101483.78;4944267;28;103877;-67
2022/11/10 09:19:11;;;;;;;;;;;;;;;17.84;52.17;101487.25;4978700;28;98358;-65
2022/11/10 09:21:36;;;;;;;;;;;;;;;17.67;52.58;101484.13;4979419;27;128755;-66
2022/11/10 09:24:03;;;;;;;;;;;;;;;17.57;52.68;101492.44;4974793;28;125957;-66
2022/11/10 09:26:29;;;;;;;;;;;;;;;17.63;52.74;101496.72;4981853;28;113656;-65
2022/11/10 09:28:55;;;;;;;;;;;;;;;17.77;52.33;101491.44;4981403;28;128023;-66
2022/11/10 09:31:21;;;;;;;;;;;;;;;17.82;52.42;101499.53;4981910;27;127807;-66
2022/11/10 09:33:47;;;;;;;;;;;;;;;17.79;52.40;101505.56;4984090;27;99145;-65
2022/11/10 09:36:13;;;;;;;;;;;;;;;17.81;52.40;101514.28;4962915;28;116539;-66
2022/11/10 09:38:39;;;;;;;;;;;;;;;17.93;52.28;101508.41;4963244;28;127893;-66
2022/11/10 09:41:08;;;;;;;;;;;;;;;18.03;52.45;101511.00;4983509;28;98130;-66
2022/11/10 09:43:43;;;;;;;;;;;;;;;18.13;52.26;101519.88;4965913;28;98412;-66
2022/11/10 09:46:19;;;;;;;;;;;;;;;18.23;52.28;101529.81;4949152;28;101414;-66
2022/11/10 09:48:49;;;;;;;;;;;;;;;18.39;52.26;101524.97;4959529;28;127150;-66
2022/11/10 09:51:35;;;;;;;;;;;;;;;18.62;51.92;101529.56;4964340;28;98359;-66
2022/11/10 09:54:25;;;;;;;;;;;;;;;18.74;51.79;101533.78;4931382;28;125967;-66
2022/11/10 09:56:52;;;;;;;;;;;;;;;18.85;51.85;101533.34;4938034;28;98113;-67
2022/11/10 09:59:22;;;;;;;;;;;;;;;18.94;52.08;101527.19;4945698;28;99192;-67
2022/11/10 10:01:58;;;;;;;;;;;;;;;18.87;52.10;101538.50;4944213;28;118069;-66
2022/11/10 10:04:45;;;;;;;;;;;;;;;19.01;52.01;101539.38;4945079;28;98060;-68
2022/11/10 10:07:26;;;;;;;;;;;;;;;19.09;51.95;101535.13;4961138;28;115772;-66
2022/11/10 10:10:03;;;;;;;;;;;;;;;19.10;52.08;101529.41;4931015;28;98310;-67
2022/11/10 10:13:03;;;;;;;;;;;;;;;19.08;52.17;101528.06;4961061;28;98913;-67
2022/11/10 10:15:43;;;;;;;;;;;;;;;19.09;52.23;101532.41;4963653;28;98133;-66
2022/11/10 10:18:18;;;;;;;;;;;;;;;19.03;52.41;101539.09;4963733;28;98031;-66
2022/11/10 10:21:02;;;;;;;;;;;;;;;18.98;52.21;101533.69;4963462;28;98868;-67
2022/11/10 10:23:43;;;;;;;;;;;;;;;19.04;52.25;101532.50;4962752;28;99401;-66
2022/11/10 10:26:12;;;;;;;;;;;;;;;19.18;52.05;101533.38;4928120;28;127771;-66
2022/11/10 10:28:38;;;;;;;;;;;;;;;19.37;51.79;101531.38;4910997;28;97965;-66
2022/11/10 10:31:18;;;;;;;;;;;;;;;19.32;52.11;101527.91;4943354;28;124889;-66
2022/11/10 10:33:44;;;;;;;;;;;;;;;19.31;52.04;101521.66;4962259;28;98005;-66
2022/11/10 10:36:23;;;;;;;;;;;;;;;19.27;52.30;101526.09;4928839;28;127106;-67
2022/11/10 10:38:59;;;;;;;;;;;;;;;19.25;52.35;101532.97;4941700;28;97919;-66
2022/11/10 10:41:27;;;;;;;;;;;;;;;19.20;52.36;101530.31;4964736;28;98766;-66
2022/11/10 10:43:57;;;;;;;;;;;;;;;19.19;52.38;101534.16;4960443;28;124442;-66
2022/11/10 10:46:26;;;;;;;;;;;;;;;19.19;52.52;101529.50;4924914;28;98520;-66
2022/11/10 10:49:16;;;;;;;;;;;;;;;19.19;52.40;101525.97;4941864;28;98155;-66
2022/11/10 10:51:42;;;;;;;;;;;;;;;19.24;52.39;101529.41;4972498;27;98623;-66
2022/11/10 10:54:30;;;;;;;;;;;;;;;19.34;52.27;101526.50;4964466;28;98659;-67
2022/11/10 10:57:28;;;;;;;;;;;;;;;19.35;52.32;101533.59;4981261;28;98031;-66
2022/11/10 11:00:22;;;;;;;;;;;;;;;19.30;52.49;101525.50;4964437;28;98328;-65
2022/11/10 11:03:03;;;;;;;;;;;;;;;19.19;52.76;101531.44;4976475;27;123783;-66
2022/11/10 11:05:29;;;;;;;;;;;;;;;19.09;52.92;101533.22;4981472;28;129333;-67
2022/11/10 11:07:57;;;;;;;;;;;;;;;18.98;53.08;101533.69;4979700;28;121016;-66
2022/11/10 11:10:28;;;;;;;;;;;;;;;18.84;53.25;101531.72;4981664;27;98612;-66
2022/11/10 11:12:53;;;;;;;;;;;;;;;18.75;53.39;101530.78;4961645;28;98021;-66
2022/11/10 11:15:24;;;;;;;;;;;;;;;18.65;53.40;101537.16;4979850;28;128177;-66
2022/11/10 11:18:03;;;;;;;;;;;;;;;18.56;53.47;101538.13;4982206;28;97951;-66
2022/11/10 11:20:55;;;;;;;;;;;;;;;18.47;53.56;101539.88;4961651;28;98094;-66
2022/11/10 11:23:45;;;;;;;;;;;;;;;18.39;53.30;101544.06;4962553;28;98284;-66
2022/11/10 11:26:48;;;;;;;;;;;;;;;18.27;53.63;101546.44;4978716;28;98778;-67
2022/11/10 11:29:33;;;;;;;;;;;;;;;18.16;53.72;101551.22;4981632;28;98071;-66
2022/11/10 11:32:11;;;;;;;;;;;;;;;18.09;53.66;101553.50;4980682;27;98440;-67
2022/11/10 11:34:46;;;;;;;;;;;;;;;18.02;53.71;101564.75;4964132;28;98889;-66
2022/11/10 11:37:34;;;;;;;;;;;;;;;17.97;53.69;101555.81;4964231;28;98322;-66
2022/11/10 11:40:38;;;;;;;;;;;;;;;17.91;53.73;101557.78;4977034;28;123863;-65
2022/11/10 11:43:16;;;;;;;;;;;;;;;17.87;53.57;101560.28;4981137;28;98220;-66
2022/11/10 11:45:45;;;;;;;;;;;;;;;17.85;53.62;101565.22;4962628;28;121245;-66
2022/11/10 11:48:13;;;;;;;;;;;;;;;17.77;53.78;101562.31;4981523;27;103294;-66
2022/11/10 11:50:53;;;;;;;;;;;;;;;17.62;53.98;101564.06;4963550;28;98344;-65
2022/11/10 11:53:32;;;;;;;;;;;;;;;17.59;53.87;101561.91;4960277;28;105915;-67
2022/11/10 11:56:23;;;;;;;;;;;;;;;17.61;53.83;101557.00;4979538;28;98675;-66
2022/11/10 11:59:10;;;;;;;;;;;;;;;17.57;53.77;101555.13;4950501;28;126693;-66
2022/11/10 12:01:50;;;;;;;;;;;;;;;17.55;53.80;101560.84;4961654;28;99209;-66
2022/11/10 12:04:19;;;;;;;;;;;;;;;17.59;53.57;101555.66;4968657;28;97978;-66
2022/11/10 12:06:51;;;;;;;;;;;;;;;17.51;53.71;101569.91;4964642;28;99298;-66
2022/11/10 12:09:30;;;;;;;;;;;;;;;17.41;53.78;101568.91;4961286;28;123691;-65
2022/11/10 12:12:25;;;;;;;;;;;;;;;17.35;54.07;101571.97;4960248;28;124978;-66
2022/11/10 12:15:12;;;;;;;;;;;;;;;17.32;53.92;101573.34;4940168;28;98174;-66
2022/11/10 12:17:54;;;;;;;;;;;;;;;17.30;53.69;101578.28;4959784;28;98608;-66
2022/11/10 12:20:37;;;;;;;;;;;;;;;17.24;53.90;101573.13;4976942;28;130251;-65
2022/11/10 12:23:29;;;;;;;;;;;;;;;17.20;54.00;101577.53;4980232;28;98190;-65
2022/11/10 12:26:19;;;;;;;;;;;;;;;17.12;54.01;101578.94;4963085;28;117705;-65
2022/11/10 12:29:02;;;;;;;;;;;;;;;17.05;53.91;101583.91;4966826;28;98727;-65
2022/11/10 12:31:28;;;;;;;;;;;;;;;16.99;54.03;101572.25;4962991;27;98759;-66
2022/11/10 12:34:22;;;;;;;;;;;;;;;16.95;53.85;101573.09;4977879;28;125830;-66
2022/11/10 12:36:48;;;;;;;;;;;;;;;16.86;54.09;101568.25;4952017;28;118866;-65
2022/11/10 12:39:18;;;;;;;;;;;;;;;16.81;54.13;101579.16;4977992;28;127215;-66
2022/11/10 12:41:59;;;;;;;;;;;;;;;16.76;54.13;101562.06;4960346;28;107400;-67
2022/11/10 12:44:38;;;;;;;;;;;;;;;16.70;54.15;101569.41;4958860;28;104075;-66
2022/11/10 12:47:05;;;;;;;;;;;;;;;16.64;54.12;101567.81;4959700;28;117274;-66
2022/11/10 12:49:38;;;;;;;;;;;;;;;16.57;54.27;101579.00;4979573;28;125599;-66
2022/11/10 12:52:09;;;;;;;;;;;;;;;16.53;54.17;101583.38;4940240;28;98459;-66
2022/11/10 12:54:35;;;;;;;;;;;;;;;16.53;54.07;101575.22;4961200;28;98458;-66